sensor_id;sensor_type;location;lat;lon;timestamp;temperature;humidity
3055;DHT22;1537;52.018;8.542;2023-07-28T00:00:20;17.40;99.90
3055;DHT22;1537;52.018;8.542;2023-07-28T00:03:43;17.40;99.90
3055;DHT22;1537;52.018;8.542;2023-07-28T00:07:07;17.40;99.90
3055;DHT22;1537;52.018;8.542;2023-07-28T00:10:31;17.40;99.90
3055;DHT22;1537;52.018;8.542;2023-07-28T00:13:54;17.40;99.90
3055;DHT22;1537;52.018;8.542;2023-07-28T00:17:20;17.40;99.90
3055;DHT22;1537;52.018;8.542;2023-07-28T00:20:43;17.40;99.90
3055;DHT22;1537;52.018;8.542;2023-07-28T00:24:07;17.30;99.90
3055;DHT22;1537;52.018;8.542;2023-07-28T00:27:30;17.40;99.90
3055;DHT22;1537;52.018;8.542;2023-07-28T00:30:54;17.40;99.90
3055;DHT22;1537;52.018;8.542;2023-07-28T00:34:20;17.30;99.90
3055;DHT22;1537;52.018;8.542;2023-07-28T00:37:44;17.30;99.90
3055;DHT22;1537;52.018;8.542;2023-07-28T00:41:08;17.30;99.90
3055;DHT22;1537;52.018;8.542;2023-07-28T00:44:31;17.30;99.90
3055;DHT22;1537;52.018;8.542;2023-07-28T00:47:55;17.30;99.90
3055;DHT22;1537;52.018;8.542;2023-07-28T00:51:21;17.30;99.90
3055;DHT22;1537;52.018;8.542;2023-07-28T00:54:45;17.30;99.90
3055;DHT22;1537;52.018;8.542;2023-07-28T00:58:09;17.30;99.90
3055;DHT22;1537;52.018;8.542;2023-07-28T01:01:33;17.30;99.90
3055;DHT22;1537;52.018;8.542;2023-07-28T01:04:57;17.30;99.90
3055;DHT22;1537;52.018;8.542;2023-07-28T01:08:29;17.30;99.90
3055;DHT22;1537;52.018;8.542;2023-07-28T01:11:55;17.30;99.90
3055;DHT22;1537;52.018;8.542;2023-07-28T01:15:20;17.30;99.90
3055;DHT22;1537;52.018;8.542;2023-07-28T01:18:43;17.20;99.90
3055;DHT22;1537;52.018;8.542;2023-07-28T01:22:22;17.20;99.90
3055;DHT22;1537;52.018;8.542;2023-07-28T01:25:58;17.30;99.90
3055;DHT22;1537;52.018;8.542;2023-07-28T01:29:28;17.30;99.90
3055;DHT22;1537;52.018;8.542;2023-07-28T01:32:54;17.30;99.90
3055;DHT22;1537;52.018;8.542;2023-07-28T01:36:18;17.30;99.90
3055;DHT22;1537;52.018;8.542;2023-07-28T01:39:42;17.30;99.90
3055;DHT22;1537;52.018;8.542;2023-07-28T01:43:06;17.30;99.90
3055;DHT22;1537;52.018;8.542;2023-07-28T01:46:31;17.30;99.90
3055;DHT22;1537;52.018;8.542;2023-07-28T01:49:55;17.30;99.90
3055;DHT22;1537;52.018;8.542;2023-07-28T01:53:19;17.30;99.90
3055;DHT22;1537;52.018;8.542;2023-07-28T01:56:42;17.30;99.90
3055;DHT22;1537;52.018;8.542;2023-07-28T02:00:07;17.30;99.90
3055;DHT22;1537;52.018;8.542;2023-07-28T02:03:38;17.30;99.90
3055;DHT22;1537;52.018;8.542;2023-07-28T02:07:01;17.30;99.90
3055;DHT22;1537;52.018;8.542;2023-07-28T02:10:26;17.30;99.90
3055;DHT22;1537;52.018;8.542;2023-07-28T02:13:50;17.30;99.90
3055;DHT22;1537;52.018;8.542;2023-07-28T02:17:14;17.30;99.90
3055;DHT22;1537;52.018;8.542;2023-07-28T02:20:39;17.30;99.90
3055;DHT22;1537;52.018;8.542;2023-07-28T02:24:03;17.30;99.90
3055;DHT22;1537;52.018;8.542;2023-07-28T02:27:27;17.20;99.90
3055;DHT22;1537;52.018;8.542;2023-07-28T02:30:51;17.20;99.90
3055;DHT22;1537;52.018;8.542;2023-07-28T02:34:15;17.20;99.90
3055;DHT22;1537;52.018;8.542;2023-07-28T02:37:40;17.20;99.90
3055;DHT22;1537;52.018;8.542;2023-07-28T02:41:05;17.20;99.90
3055;DHT22;1537;52.018;8.542;2023-07-28T02:44:29;17.20;99.90
3055;DHT22;1537;52.018;8.542;2023-07-28T02:47:53;17.20;99.90
3055;DHT22;1537;52.018;8.542;2023-07-28T02:51:18;17.20;99.90
3055;DHT22;1537;52.018;8.542;2023-07-28T02:54:43;17.20;99.90
3055;DHT22;1537;52.018;8.542;2023-07-28T02:58:07;17.20;99.90
3055;DHT22;1537;52.018;8.542;2023-07-28T03:01:30;17.20;99.90
3055;DHT22;1537;52.018;8.542;2023-07-28T03:04:55;17.20;99.90
3055;DHT22;1537;52.018;8.542;2023-07-28T03:08:19;17.20;99.90
3055;DHT22;1537;52.018;8.542;2023-07-28T03:11:44;17.10;99.90
3055;DHT22;1537;52.018;8.542;2023-07-28T03:15:08;17.20;99.90
3055;DHT22;1537;52.018;8.542;2023-07-28T03:18:32;17.10;99.90
3055;DHT22;1537;52.018;8.542;2023-07-28T03:21:56;17.10;99.90
3055;DHT22;1537;52.018;8.542;2023-07-28T03:25:19;17.10;99.90
3055;DHT22;1537;52.018;8.542;2023-07-28T03:28:44;17.10;99.90
3055;DHT22;1537;52.018;8.542;2023-07-28T03:32:08;17.10;99.90
3055;DHT22;1537;52.018;8.542;2023-07-28T03:35:32;17.10;99.90
3055;DHT22;1537;52.018;8.542;2023-07-28T03:39:01;17.10;99.90
3055;DHT22;1537;52.018;8.542;2023-07-28T03:42:25;17.20;99.90
3055;DHT22;1537;52.018;8.542;2023-07-28T03:45:51;17.20;99.90
3055;DHT22;1537;52.018;8.542;2023-07-28T03:49:15;17.20;99.90
3055;DHT22;1537;52.018;8.542;2023-07-28T03:52:38;17.20;99.90
3055;DHT22;1537;52.018;8.542;2023-07-28T03:56:03;17.20;99.90
3055;DHT22;1537;52.018;8.542;2023-07-28T03:59:27;17.20;99.90
3055;DHT22;1537;52.018;8.542;2023-07-28T04:02:51;17.10;99.90
3055;DHT22;1537;52.018;8.542;2023-07-28T04:06:15;17.20;99.90
3055;DHT22;1537;52.018;8.542;2023-07-28T04:09:39;17.20;99.90
3055;DHT22;1537;52.018;8.542;2023-07-28T04:13:02;17.20;99.90
3055;DHT22;1537;52.018;8.542;2023-07-28T04:16:26;17.20;99.90
3055;DHT22;1537;52.018;8.542;2023-07-28T04:19:51;17.20;99.90
3055;DHT22;1537;52.018;8.542;2023-07-28T04:23:15;17.20;99.90
3055;DHT22;1537;52.018;8.542;2023-07-28T04:26:38;17.30;99.90
3055;DHT22;1537;52.018;8.542;2023-07-28T04:30:06;17.30;99.90
3055;DHT22;1537;52.018;8.542;2023-07-28T04:33:29;17.30;99.90
3055;DHT22;1537;52.018;8.542;2023-07-28T04:36:54;17.30;99.90
3055;DHT22;1537;52.018;8.542;2023-07-28T04:40:21;17.30;99.90
3055;DHT22;1537;52.018;8.542;2023-07-28T04:43:44;17.30;99.90
3055;DHT22;1537;52.018;8.542;2023-07-28T04:47:08;17.30;99.90
3055;DHT22;1537;52.018;8.542;2023-07-28T04:50:32;17.30;99.90
3055;DHT22;1537;52.018;8.542;2023-07-28T04:54:20;17.30;99.90
3055;DHT22;1537;52.018;8.542;2023-07-28T04:57:44;17.30;99.90
3055;DHT22;1537;52.018;8.542;2023-07-28T05:01:08;17.30;99.90
3055;DHT22;1537;52.018;8.542;2023-07-28T05:04:33;17.40;99.90
3055;DHT22;1537;52.018;8.542;2023-07-28T05:07:59;17.40;99.90
3055;DHT22;1537;52.018;8.542;2023-07-28T05:11:24;17.40;99.90
3055;DHT22;1537;52.018;8.542;2023-07-28T05:14:48;17.50;99.90
3055;DHT22;1537;52.018;8.542;2023-07-28T05:18:14;17.50;99.90
3055;DHT22;1537;52.018;8.542;2023-07-28T05:21:59;17.60;99.90
3055;DHT22;1537;52.018;8.542;2023-07-28T05:25:40;17.60;99.90
3055;DHT22;1537;52.018;8.542;2023-07-28T05:29:05;17.60;99.90
3055;DHT22;1537;52.018;8.542;2023-07-28T05:32:29;17.60;99.90
3055;DHT22;1537;52.018;8.542;2023-07-28T05:36:04;17.70;99.90
3055;DHT22;1537;52.018;8.542;2023-07-28T05:39:28;17.70;99.90
3055;DHT22;1537;52.018;8.542;2023-07-28T05:42:52;17.80;99.90
3055;DHT22;1537;52.018;8.542;2023-07-28T05:46:17;17.70;99.90
3055;DHT22;1537;52.018;8.542;2023-07-28T05:49:41;17.70;99.90
3055;DHT22;1537;52.018;8.542;2023-07-28T05:53:05;17.80;99.90
3055;DHT22;1537;52.018;8.542;2023-07-28T05:56:30;17.80;99.90
3055;DHT22;1537;52.018;8.542;2023-07-28T05:59:54;17.80;99.90
3055;DHT22;1537;52.018;8.542;2023-07-28T06:03:19;17.80;99.90
3055;DHT22;1537;52.018;8.542;2023-07-28T06:07:01;17.80;99.90
3055;DHT22;1537;52.018;8.542;2023-07-28T06:10:25;17.80;99.90
3055;DHT22;1537;52.018;8.542;2023-07-28T06:13:49;17.90;99.90
3055;DHT22;1537;52.018;8.542;2023-07-28T06:17:12;17.90;99.90
3055;DHT22;1537;52.018;8.542;2023-07-28T06:20:38;17.90;99.90
3055;DHT22;1537;52.018;8.542;2023-07-28T06:24:05;17.90;99.90
3055;DHT22;1537;52.018;8.542;2023-07-28T06:27:29;18.00;99.90
3055;DHT22;1537;52.018;8.542;2023-07-28T06:30:53;17.90;99.90
3055;DHT22;1537;52.018;8.542;2023-07-28T06:34:19;18.00;99.90
3055;DHT22;1537;52.018;8.542;2023-07-28T06:37:44;18.00;99.90
3055;DHT22;1537;52.018;8.542;2023-07-28T06:41:08;18.00;99.90
3055;DHT22;1537;52.018;8.542;2023-07-28T06:44:31;18.00;99.90
3055;DHT22;1537;52.018;8.542;2023-07-28T06:47:55;18.00;99.90
3055;DHT22;1537;52.018;8.542;2023-07-28T06:51:19;18.00;99.90
3055;DHT22;1537;52.018;8.542;2023-07-28T06:54:44;18.00;99.90
3055;DHT22;1537;52.018;8.542;2023-07-28T06:58:09;18.10;99.90
3055;DHT22;1537;52.018;8.542;2023-07-28T07:01:33;18.00;99.90
3055;DHT22;1537;52.018;8.542;2023-07-28T07:04:58;18.00;99.90
3055;DHT22;1537;52.018;8.542;2023-07-28T07:08:21;18.00;99.90
3055;DHT22;1537;52.018;8.542;2023-07-28T07:11:46;18.00;99.90
3055;DHT22;1537;52.018;8.542;2023-07-28T07:15:10;18.10;99.90
3055;DHT22;1537;52.018;8.542;2023-07-28T07:18:34;18.10;99.90
3055;DHT22;1537;52.018;8.542;2023-07-28T07:21:58;18.20;99.90
3055;DHT22;1537;52.018;8.542;2023-07-28T07:25:22;18.20;99.90
3055;DHT22;1537;52.018;8.542;2023-07-28T07:28:47;18.20;99.90
3055;DHT22;1537;52.018;8.542;2023-07-28T07:32:10;18.20;99.90
3055;DHT22;1537;52.018;8.542;2023-07-28T07:35:36;18.30;99.90
3055;DHT22;1537;52.018;8.542;2023-07-28T07:39:00;18.20;99.90
3055;DHT22;1537;52.018;8.542;2023-07-28T07:42:24;18.30;99.90
3055;DHT22;1537;52.018;8.542;2023-07-28T07:45:49;18.30;99.90
3055;DHT22;1537;52.018;8.542;2023-07-28T07:49:14;18.30;99.90
3055;DHT22;1537;52.018;8.542;2023-07-28T07:52:38;18.40;99.90
3055;DHT22;1537;52.018;8.542;2023-07-28T07:56:04;18.50;99.90
3055;DHT22;1537;52.018;8.542;2023-07-28T07:59:28;18.70;99.90
3055;DHT22;1537;52.018;8.542;2023-07-28T08:02:58;18.90;99.90
3055;DHT22;1537;52.018;8.542;2023-07-28T08:06:22;19.10;99.90
3055;DHT22;1537;52.018;8.542;2023-07-28T08:09:46;19.60;99.90
3055;DHT22;1537;52.018;8.542;2023-07-28T08:13:10;19.90;99.90
3055;DHT22;1537;52.018;8.542;2023-07-28T08:16:33;20.40;99.90
3055;DHT22;1537;52.018;8.542;2023-07-28T08:19:58;21.30;99.90
3055;DHT22;1537;52.018;8.542;2023-07-28T08:23:22;22.50;99.90
3055;DHT22;1537;52.018;8.542;2023-07-28T08:26:45;24.00;99.90
3055;DHT22;1537;52.018;8.542;2023-07-28T08:30:10;25.10;99.90
3055;DHT22;1537;52.018;8.542;2023-07-28T08:33:34;26.00;99.90
3055;DHT22;1537;52.018;8.542;2023-07-28T08:36:59;25.80;99.90
3055;DHT22;1537;52.018;8.542;2023-07-28T08:40:23;25.10;99.90
3055;DHT22;1537;52.018;8.542;2023-07-28T08:43:49;24.60;99.90
3055;DHT22;1537;52.018;8.542;2023-07-28T08:47:14;24.60;99.90
3055;DHT22;1537;52.018;8.542;2023-07-28T08:50:38;24.40;99.90
3055;DHT22;1537;52.018;8.542;2023-07-28T08:54:04;23.80;99.90
3055;DHT22;1537;52.018;8.542;2023-07-28T08:57:27;23.30;99.90
3055;DHT22;1537;52.018;8.542;2023-07-28T09:00:52;22.90;99.90
3055;DHT22;1537;52.018;8.542;2023-07-28T09:04:16;22.80;99.90
3055;DHT22;1537;52.018;8.542;2023-07-28T09:07:39;22.50;99.90
3055;DHT22;1537;52.018;8.542;2023-07-28T09:11:07;22.10;99.90
3055;DHT22;1537;52.018;8.542;2023-07-28T09:14:31;22.00;99.90
3055;DHT22;1537;52.018;8.542;2023-07-28T09:17:54;22.50;99.90
3055;DHT22;1537;52.018;8.542;2023-07-28T09:21:19;23.60;99.90
3055;DHT22;1537;52.018;8.542;2023-07-28T09:24:43;25.20;99.90
3055;DHT22;1537;52.018;8.542;2023-07-28T09:28:09;25.60;99.90
3055;DHT22;1537;52.018;8.542;2023-07-28T09:31:33;27.20;99.90
3055;DHT22;1537;52.018;8.542;2023-07-28T09:35:11;26.90;99.90
3055;DHT22;1537;52.018;8.542;2023-07-28T09:38:37;25.70;99.90
3055;DHT22;1537;52.018;8.542;2023-07-28T09:42:02;24.30;99.90
3055;DHT22;1537;52.018;8.542;2023-07-28T09:45:27;23.80;99.90
3055;DHT22;1537;52.018;8.542;2023-07-28T09:48:59;23.40;99.90
3055;DHT22;1537;52.018;8.542;2023-07-28T09:52:32;23.40;99.90
3055;DHT22;1537;52.018;8.542;2023-07-28T09:55:58;23.40;99.90
3055;DHT22;1537;52.018;8.542;2023-07-28T09:59:24;23.10;99.90
3055;DHT22;1537;52.018;8.542;2023-07-28T10:02:53;22.70;99.90
3055;DHT22;1537;52.018;8.542;2023-07-28T10:06:17;22.40;99.90
3055;DHT22;1537;52.018;8.542;2023-07-28T10:09:41;22.30;99.90
3055;DHT22;1537;52.018;8.542;2023-07-28T10:13:04;22.60;99.90
3055;DHT22;1537;52.018;8.542;2023-07-28T10:16:37;22.60;99.90
3055;DHT22;1537;52.018;8.542;2023-07-28T10:20:04;22.50;99.90
3055;DHT22;1537;52.018;8.542;2023-07-28T10:23:34;22.60;99.90
3055;DHT22;1537;52.018;8.542;2023-07-28T10:26:58;22.80;99.90
3055;DHT22;1537;52.018;8.542;2023-07-28T10:30:22;22.80;99.90
3055;DHT22;1537;52.018;8.542;2023-07-28T10:33:47;22.80;99.90
3055;DHT22;1537;52.018;8.542;2023-07-28T10:37:14;23.10;99.90
3055;DHT22;1537;52.018;8.542;2023-07-28T10:40:38;23.20;99.90
3055;DHT22;1537;52.018;8.542;2023-07-28T10:44:02;22.90;99.90
3055;DHT22;1537;52.018;8.542;2023-07-28T10:47:26;22.60;99.90
3055;DHT22;1537;52.018;8.542;2023-07-28T10:50:50;22.20;99.90
3055;DHT22;1537;52.018;8.542;2023-07-28T10:54:15;22.00;99.90
3055;DHT22;1537;52.018;8.542;2023-07-28T10:57:42;21.80;99.90
3055;DHT22;1537;52.018;8.542;2023-07-28T11:01:06;21.90;99.90
3055;DHT22;1537;52.018;8.542;2023-07-28T11:04:30;21.90;99.90
3055;DHT22;1537;52.018;8.542;2023-07-28T11:07:55;22.00;99.90
3055;DHT22;1537;52.018;8.542;2023-07-28T11:11:21;21.80;99.90
3055;DHT22;1537;52.018;8.542;2023-07-28T11:14:44;22.00;99.90
3055;DHT22;1537;52.018;8.542;2023-07-28T11:18:08;22.30;99.90
3055;DHT22;1537;52.018;8.542;2023-07-28T11:21:36;22.70;99.90
3055;DHT22;1537;52.018;8.542;2023-07-28T11:25:00;22.90;99.90
3055;DHT22;1537;52.018;8.542;2023-07-28T11:28:25;22.90;99.90
3055;DHT22;1537;52.018;8.542;2023-07-28T11:31:50;23.00;99.90
3055;DHT22;1537;52.018;8.542;2023-07-28T11:35:15;23.30;99.90
3055;DHT22;1537;52.018;8.542;2023-07-28T11:38:39;23.40;99.90
3055;DHT22;1537;52.018;8.542;2023-07-28T11:42:04;23.50;99.90
3055;DHT22;1537;52.018;8.542;2023-07-28T11:45:29;23.40;99.90
3055;DHT22;1537;52.018;8.542;2023-07-28T11:48:53;23.40;99.90
3055;DHT22;1537;52.018;8.542;2023-07-28T11:52:17;23.50;99.90
3055;DHT22;1537;52.018;8.542;2023-07-28T11:55:43;23.50;99.90
3055;DHT22;1537;52.018;8.542;2023-07-28T11:59:07;23.70;99.90
3055;DHT22;1537;52.018;8.542;2023-07-28T12:02:32;23.60;99.90
3055;DHT22;1537;52.018;8.542;2023-07-28T12:06:04;23.40;99.90
3055;DHT22;1537;52.018;8.542;2023-07-28T12:09:31;23.20;99.90
3055;DHT22;1537;52.018;8.542;2023-07-28T12:12:55;23.60;99.90
3055;DHT22;1537;52.018;8.542;2023-07-28T12:16:34;23.90;99.90
3055;DHT22;1537;52.018;8.542;2023-07-28T12:20:05;23.80;99.90
3055;DHT22;1537;52.018;8.542;2023-07-28T12:23:33;23.70;99.90
3055;DHT22;1537;52.018;8.542;2023-07-28T12:26:59;23.70;99.90
3055;DHT22;1537;52.018;8.542;2023-07-28T12:30:34;23.80;99.90
3055;DHT22;1537;52.018;8.542;2023-07-28T12:33:57;23.70;99.90
3055;DHT22;1537;52.018;8.542;2023-07-28T12:37:25;23.80;99.90
3055;DHT22;1537;52.018;8.542;2023-07-28T12:40:52;23.80;99.90
3055;DHT22;1537;52.018;8.542;2023-07-28T12:44:20;24.00;99.90
3055;DHT22;1537;52.018;8.542;2023-07-28T12:48:04;24.10;99.90
3055;DHT22;1537;52.018;8.542;2023-07-28T12:51:27;24.20;99.90
3055;DHT22;1537;52.018;8.542;2023-07-28T12:54:54;24.30;99.90
3055;DHT22;1537;52.018;8.542;2023-07-28T12:58:36;24.50;99.90
3055;DHT22;1537;52.018;8.542;2023-07-28T13:02:03;24.40;99.90
3055;DHT22;1537;52.018;8.542;2023-07-28T13:05:27;24.50;99.90
3055;DHT22;1537;52.018;8.542;2023-07-28T13:08:51;24.50;99.90
3055;DHT22;1537;52.018;8.542;2023-07-28T13:12:18;24.70;99.90
3055;DHT22;1537;52.018;8.542;2023-07-28T13:15:45;24.90;99.90
3055;DHT22;1537;52.018;8.542;2023-07-28T13:19:09;25.00;99.90
3055;DHT22;1537;52.018;8.542;2023-07-28T13:22:32;24.90;99.90
3055;DHT22;1537;52.018;8.542;2023-07-28T13:25:56;25.00;99.90
3055;DHT22;1537;52.018;8.542;2023-07-28T13:29:21;25.00;99.90
3055;DHT22;1537;52.018;8.542;2023-07-28T13:32:44;25.20;99.90
3055;DHT22;1537;52.018;8.542;2023-07-28T13:36:08;25.40;99.90
3055;DHT22;1537;52.018;8.542;2023-07-28T13:39:32;25.40;99.90
3055;DHT22;1537;52.018;8.542;2023-07-28T13:42:56;25.50;99.90
3055;DHT22;1537;52.018;8.542;2023-07-28T13:46:21;25.40;99.90
3055;DHT22;1537;52.018;8.542;2023-07-28T13:49:44;25.60;99.90
3055;DHT22;1537;52.018;8.542;2023-07-28T13:53:11;25.60;99.90
3055;DHT22;1537;52.018;8.542;2023-07-28T13:56:37;25.50;99.90
3055;DHT22;1537;52.018;8.542;2023-07-28T14:00:21;25.50;99.90
3055;DHT22;1537;52.018;8.542;2023-07-28T14:03:46;25.50;99.90
3055;DHT22;1537;52.018;8.542;2023-07-28T14:07:10;25.60;99.90
3055;DHT22;1537;52.018;8.542;2023-07-28T14:10:36;25.40;99.90
3055;DHT22;1537;52.018;8.542;2023-07-28T14:14:00;25.10;99.90
3055;DHT22;1537;52.018;8.542;2023-07-28T14:17:24;25.20;99.90
3055;DHT22;1537;52.018;8.542;2023-07-28T14:20:49;25.20;99.90
3055;DHT22;1537;52.018;8.542;2023-07-28T14:24:13;25.40;99.90
3055;DHT22;1537;52.018;8.542;2023-07-28T14:27:37;25.60;99.90
3055;DHT22;1537;52.018;8.542;2023-07-28T14:31:00;25.70;99.90
3055;DHT22;1537;52.018;8.542;2023-07-28T14:34:24;25.60;99.90
3055;DHT22;1537;52.018;8.542;2023-07-28T14:37:49;25.50;99.90
3055;DHT22;1537;52.018;8.542;2023-07-28T14:41:13;25.50;99.90
3055;DHT22;1537;52.018;8.542;2023-07-28T14:44:36;25.50;99.90
3055;DHT22;1537;52.018;8.542;2023-07-28T14:48:00;25.50;99.90
3055;DHT22;1537;52.018;8.542;2023-07-28T14:51:25;25.40;99.90
3055;DHT22;1537;52.018;8.542;2023-07-28T14:54:50;25.50;99.90
3055;DHT22;1537;52.018;8.542;2023-07-28T14:58:13;25.30;99.90
3055;DHT22;1537;52.018;8.542;2023-07-28T15:01:37;25.20;99.90
3055;DHT22;1537;52.018;8.542;2023-07-28T15:05:01;25.10;99.90
3055;DHT22;1537;52.018;8.542;2023-07-28T15:08:25;25.20;99.90
3055;DHT22;1537;52.018;8.542;2023-07-28T15:11:50;25.50;99.90
3055;DHT22;1537;52.018;8.542;2023-07-28T15:15:14;25.60;99.90
3055;DHT22;1537;52.018;8.542;2023-07-28T15:18:37;25.70;99.90
3055;DHT22;1537;52.018;8.542;2023-07-28T15:22:01;25.60;99.90
3055;DHT22;1537;52.018;8.542;2023-07-28T15:25:25;25.60;99.90
3055;DHT22;1537;52.018;8.542;2023-07-28T15:28:50;25.70;99.90
3055;DHT22;1537;52.018;8.542;2023-07-28T15:32:14;25.60;99.90
3055;DHT22;1537;52.018;8.542;2023-07-28T15:35:37;25.40;99.90
3055;DHT22;1537;52.018;8.542;2023-07-28T15:39:01;25.60;99.90
3055;DHT22;1537;52.018;8.542;2023-07-28T15:42:25;25.70;99.90
3055;DHT22;1537;52.018;8.542;2023-07-28T15:45:51;25.90;99.90
3055;DHT22;1537;52.018;8.542;2023-07-28T15:49:17;25.90;99.90
3055;DHT22;1537;52.018;8.542;2023-07-28T15:52:41;25.70;99.90
3055;DHT22;1537;52.018;8.542;2023-07-28T15:56:04;25.50;99.90
3055;DHT22;1537;52.018;8.542;2023-07-28T15:59:29;25.70;99.90
3055;DHT22;1537;52.018;8.542;2023-07-28T16:02:54;25.90;99.90
3055;DHT22;1537;52.018;8.542;2023-07-28T16:06:18;25.70;99.90
3055;DHT22;1537;52.018;8.542;2023-07-28T16:09:42;25.60;99.90
3055;DHT22;1537;52.018;8.542;2023-07-28T16:13:06;25.70;99.90
3055;DHT22;1537;52.018;8.542;2023-07-28T16:16:30;25.70;99.90
3055;DHT22;1537;52.018;8.542;2023-07-28T16:19:55;25.70;99.90
3055;DHT22;1537;52.018;8.542;2023-07-28T16:23:19;25.50;99.90
3055;DHT22;1537;52.018;8.542;2023-07-28T16:26:43;25.40;99.90
3055;DHT22;1537;52.018;8.542;2023-07-28T16:30:08;25.40;99.90
3055;DHT22;1537;52.018;8.542;2023-07-28T16:33:32;25.50;99.90
3055;DHT22;1537;52.018;8.542;2023-07-28T16:36:57;25.50;99.90
3055;DHT22;1537;52.018;8.542;2023-07-28T16:40:21;25.60;99.90
3055;DHT22;1537;52.018;8.542;2023-07-28T16:43:44;25.50;99.90
3055;DHT22;1537;52.018;8.542;2023-07-28T16:47:08;25.50;99.90
3055;DHT22;1537;52.018;8.542;2023-07-28T16:50:32;25.50;99.90
3055;DHT22;1537;52.018;8.542;2023-07-28T16:53:57;25.50;99.90
3055;DHT22;1537;52.018;8.542;2023-07-28T16:57:21;25.40;99.90
3055;DHT22;1537;52.018;8.542;2023-07-28T17:00:44;25.30;99.90
3055;DHT22;1537;52.018;8.542;2023-07-28T17:04:08;25.10;99.90
3055;DHT22;1537;52.018;8.542;2023-07-28T17:07:32;25.10;99.90
3055;DHT22;1537;52.018;8.542;2023-07-28T17:10:57;25.00;99.90
3055;DHT22;1537;52.018;8.542;2023-07-28T17:14:20;25.10;99.90
3055;DHT22;1537;52.018;8.542;2023-07-28T17:17:44;25.10;99.90
3055;DHT22;1537;52.018;8.542;2023-07-28T17:21:07;25.00;99.90
3055;DHT22;1537;52.018;8.542;2023-07-28T17:24:31;24.70;99.90
3055;DHT22;1537;52.018;8.542;2023-07-28T17:27:56;24.70;99.90
3055;DHT22;1537;52.018;8.542;2023-07-28T17:31:20;24.70;99.90
3055;DHT22;1537;52.018;8.542;2023-07-28T17:34:44;24.80;99.90
3055;DHT22;1537;52.018;8.542;2023-07-28T17:38:08;24.80;99.90
3055;DHT22;1537;52.018;8.542;2023-07-28T17:41:31;24.70;99.90
3055;DHT22;1537;52.018;8.542;2023-07-28T17:44:57;24.50;99.90
3055;DHT22;1537;52.018;8.542;2023-07-28T17:48:23;24.40;99.90
3055;DHT22;1537;52.018;8.542;2023-07-28T17:51:48;24.20;99.90
3055;DHT22;1537;52.018;8.542;2023-07-28T17:55:12;24.10;99.90
3055;DHT22;1537;52.018;8.542;2023-07-28T17:58:36;24.00;99.90
3055;DHT22;1537;52.018;8.542;2023-07-28T18:02:01;23.90;99.90
3055;DHT22;1537;52.018;8.542;2023-07-28T18:05:25;23.80;99.90
3055;DHT22;1537;52.018;8.542;2023-07-28T18:08:49;23.70;99.90
3055;DHT22;1537;52.018;8.542;2023-07-28T18:12:12;23.70;99.90
3055;DHT22;1537;52.018;8.542;2023-07-28T18:15:36;23.70;99.90
3055;DHT22;1537;52.018;8.542;2023-07-28T18:19:01;23.70;99.90
3055;DHT22;1537;52.018;8.542;2023-07-28T18:22:25;23.60;99.90
3055;DHT22;1537;52.018;8.542;2023-07-28T18:25:48;23.60;99.90
3055;DHT22;1537;52.018;8.542;2023-07-28T18:29:12;23.60;99.90
3055;DHT22;1537;52.018;8.542;2023-07-28T18:32:35;23.40;99.90
3055;DHT22;1537;52.018;8.542;2023-07-28T18:36:00;23.30;99.90
3055;DHT22;1537;52.018;8.542;2023-07-28T18:39:24;23.20;99.90
3055;DHT22;1537;52.018;8.542;2023-07-28T18:42:47;23.30;99.90
3055;DHT22;1537;52.018;8.542;2023-07-28T18:46:11;23.30;99.90
3055;DHT22;1537;52.018;8.542;2023-07-28T18:49:35;23.20;99.90
3055;DHT22;1537;52.018;8.542;2023-07-28T18:53:00;23.10;99.90
3055;DHT22;1537;52.018;8.542;2023-07-28T18:56:23;22.90;99.90
3055;DHT22;1537;52.018;8.542;2023-07-28T18:59:47;22.90;99.90
3055;DHT22;1537;52.018;8.542;2023-07-28T19:03:11;22.90;99.90
3055;DHT22;1537;52.018;8.542;2023-07-28T19:06:35;22.80;99.90
3055;DHT22;1537;52.018;8.542;2023-07-28T19:10:00;22.60;99.90
3055;DHT22;1537;52.018;8.542;2023-07-28T19:13:26;22.60;99.90
3055;DHT22;1537;52.018;8.542;2023-07-28T19:16:49;22.50;99.90
3055;DHT22;1537;52.018;8.542;2023-07-28T19:20:13;22.50;99.90
3055;DHT22;1537;52.018;8.542;2023-07-28T19:23:42;22.50;99.90
3055;DHT22;1537;52.018;8.542;2023-07-28T19:27:07;22.40;99.90
3055;DHT22;1537;52.018;8.542;2023-07-28T19:30:31;22.40;99.90
3055;DHT22;1537;52.018;8.542;2023-07-28T19:33:55;22.30;99.90
3055;DHT22;1537;52.018;8.542;2023-07-28T19:37:18;22.30;99.90
3055;DHT22;1537;52.018;8.542;2023-07-28T19:41:02;22.30;99.90
3055;DHT22;1537;52.018;8.542;2023-07-28T19:44:27;22.30;99.90
3055;DHT22;1537;52.018;8.542;2023-07-28T19:48:04;22.20;99.90
3055;DHT22;1537;52.018;8.542;2023-07-28T19:51:27;22.20;99.90
3055;DHT22;1537;52.018;8.542;2023-07-28T19:54:51;22.20;99.90
3055;DHT22;1537;52.018;8.542;2023-07-28T19:58:15;22.10;99.90
3055;DHT22;1537;52.018;8.542;2023-07-28T20:01:40;22.00;99.90
3055;DHT22;1537;52.018;8.542;2023-07-28T20:05:04;22.00;99.90
3055;DHT22;1537;52.018;8.542;2023-07-28T20:08:28;22.00;99.90
3055;DHT22;1537;52.018;8.542;2023-07-28T20:11:51;22.00;99.90
3055;DHT22;1537;52.018;8.542;2023-07-28T20:15:16;21.90;99.90
3055;DHT22;1537;52.018;8.542;2023-07-28T20:18:41;21.90;99.90
3055;DHT22;1537;52.018;8.542;2023-07-28T20:22:08;21.90;99.90
3055;DHT22;1537;52.018;8.542;2023-07-28T20:25:33;21.80;99.90
3055;DHT22;1537;52.018;8.542;2023-07-28T20:28:57;21.80;99.90
3055;DHT22;1537;52.018;8.542;2023-07-28T20:32:20;21.70;99.90
3055;DHT22;1537;52.018;8.542;2023-07-28T20:35:50;21.60;99.90
3055;DHT22;1537;52.018;8.542;2023-07-28T20:39:14;21.60;99.90
3055;DHT22;1537;52.018;8.542;2023-07-28T20:42:37;21.60;99.90
3055;DHT22;1537;52.018;8.542;2023-07-28T20:46:01;21.50;99.90
3055;DHT22;1537;52.018;8.542;2023-07-28T20:49:25;21.40;99.90
3055;DHT22;1537;52.018;8.542;2023-07-28T20:52:50;21.30;99.90
3055;DHT22;1537;52.018;8.542;2023-07-28T20:56:13;21.20;99.90
3055;DHT22;1537;52.018;8.542;2023-07-28T20:59:37;21.20;99.90
3055;DHT22;1537;52.018;8.542;2023-07-28T21:03:00;21.10;99.90
3055;DHT22;1537;52.018;8.542;2023-07-28T21:06:25;21.00;99.90
3055;DHT22;1537;52.018;8.542;2023-07-28T21:09:50;20.90;99.90
3055;DHT22;1537;52.018;8.542;2023-07-28T21:13:14;20.90;99.90
3055;DHT22;1537;52.018;8.542;2023-07-28T21:16:38;20.80;99.90
3055;DHT22;1537;52.018;8.542;2023-07-28T21:20:02;20.70;99.90
3055;DHT22;1537;52.018;8.542;2023-07-28T21:23:26;20.70;99.90
3055;DHT22;1537;52.018;8.542;2023-07-28T21:26:56;20.60;99.90
3055;DHT22;1537;52.018;8.542;2023-07-28T21:30:20;20.60;99.90
3055;DHT22;1537;52.018;8.542;2023-07-28T21:33:43;20.60;99.90
3055;DHT22;1537;52.018;8.542;2023-07-28T21:37:07;20.50;99.90
3055;DHT22;1537;52.018;8.542;2023-07-28T21:40:31;20.50;99.90
3055;DHT22;1537;52.018;8.542;2023-07-28T21:43:56;20.50;99.90
3055;DHT22;1537;52.018;8.542;2023-07-28T21:47:20;20.50;99.90
3055;DHT22;1537;52.018;8.542;2023-07-28T21:50:44;20.40;99.90
3055;DHT22;1537;52.018;8.542;2023-07-28T21:54:07;20.30;99.90
3055;DHT22;1537;52.018;8.542;2023-07-28T21:57:31;20.30;99.90
3055;DHT22;1537;52.018;8.542;2023-07-28T22:00:57;20.20;99.90
3055;DHT22;1537;52.018;8.542;2023-07-28T22:04:21;20.20;99.90
3055;DHT22;1537;52.018;8.542;2023-07-28T22:07:44;20.10;99.90
3055;DHT22;1537;52.018;8.542;2023-07-28T22:11:09;20.00;99.90
3055;DHT22;1537;52.018;8.542;2023-07-28T22:14:33;20.00;99.90
3055;DHT22;1537;52.018;8.542;2023-07-28T22:17:58;19.90;99.90